createdAt,value
2023-03-18T00:01:07.575Z,8.53
2023-03-18T00:03:37.600Z,8.37
2023-03-18T00:06:13.979Z,11.63
2023-03-18T00:08:42.776Z,12.23
2023-03-18T00:13:38.872Z,13.95
2023-03-18T00:16:06.874Z,12.87
2023-03-18T00:18:34.471Z,12.63
2023-03-18T00:21:02.094Z,11.17
2023-03-18T00:23:29.164Z,8.53
2023-03-18T00:25:58.386Z,7.87
2023-03-18T00:28:26.004Z,12.88
2023-03-18T00:30:54.280Z,10.87
2023-03-18T00:33:21.345Z,8.80
2023-03-18T00:35:48.605Z,14.20
2023-03-18T00:38:20.821Z,16.63
2023-03-18T00:41:01.406Z,10.90
2023-03-18T00:43:33.778Z,10.93
2023-03-18T00:46:01.169Z,10.23
2023-03-18T00:48:28.127Z,13.10
2023-03-18T00:50:56.072Z,10.50
2023-03-18T00:53:25.170Z,11.87
2023-03-18T00:55:53.207Z,9.33
2023-03-18T00:58:20.242Z,10.70
2023-03-18T01:00:47.826Z,10.50
2023-03-18T01:03:14.831Z,14.10
2023-03-18T01:05:42.503Z,12.40
2023-03-18T01:08:09.607Z,10.10
2023-03-18T01:10:36.922Z,13.83
2023-03-18T01:13:03.853Z,14.30
2023-03-18T01:15:31.125Z,16.70
2023-03-18T01:17:58.533Z,10.17
2023-03-18T01:20:25.969Z,12.63
2023-03-18T01:22:52.813Z,10.63
2023-03-18T01:25:20.472Z,11.43
2023-03-18T01:27:47.377Z,16.20
2023-03-18T01:30:14.871Z,11.13
2023-03-18T01:32:43.929Z,16.63
2023-03-18T01:35:12.393Z,15.27
2023-03-18T01:37:39.774Z,8.60
2023-03-18T01:40:11.376Z,14.73
2023-03-18T01:42:38.745Z,19.73
2023-03-18T01:45:21.730Z,21.57
2023-03-18T01:47:49.940Z,25.33
2023-03-18T01:50:26.338Z,19.02
2023-03-18T01:52:58.154Z,22.40
2023-03-18T01:55:28.331Z,27.47
2023-03-18T01:57:56.424Z,27.63
2023-03-18T02:00:24.072Z,25.25
2023-03-18T02:02:55.442Z,26.90
2023-03-18T02:05:28.945Z,30.20
2023-03-18T02:07:55.940Z,23.13
2023-03-18T02:10:29.388Z,13.43
2023-03-18T02:13:03.641Z,19.40
2023-03-18T02:15:33.976Z,17.93
2023-03-18T02:18:08.124Z,19.00
2023-03-18T02:20:53.668Z,22.80
2023-03-18T02:23:29.258Z,23.50
2023-03-18T02:26:10.482Z,29.00
2023-03-18T02:28:38.823Z,27.53
2023-03-18T02:31:11.951Z,22.58
2023-03-18T02:33:41.003Z,22.63
2023-03-18T02:36:13.761Z,20.53
2023-03-18T02:38:43.150Z,23.73
2023-03-18T02:41:21.956Z,19.97
2023-03-18T02:43:50.080Z,17.77
2023-03-18T02:49:21.585Z,11.57
2023-03-18T02:51:49.428Z,13.02
2023-03-18T02:54:20.989Z,9.90
2023-03-18T02:56:48.592Z,6.50
2023-03-18T02:59:15.867Z,3.93
2023-03-18T03:01:45.211Z,8.97
2023-03-18T03:06:40.751Z,7.50
2023-03-18T03:09:10.358Z,7.33
2023-03-18T03:11:37.825Z,8.40
2023-03-18T03:14:05.265Z,3.30
2023-03-18T03:16:32.821Z,10.03
2023-03-18T03:18:59.672Z,8.73
2023-03-18T03:21:27.898Z,7.93
2023-03-18T03:23:56.137Z,8.33
2023-03-18T03:26:23.244Z,10.13
2023-03-18T03:28:50.088Z,7.07
2023-03-18T03:31:17.842Z,13.93
2023-03-18T03:33:45.375Z,11.30
2023-03-18T03:36:15.650Z,9.73
2023-03-18T03:38:43.651Z,10.90
2023-03-18T03:41:12.418Z,11.23
2023-03-18T03:43:40.700Z,13.88
2023-03-18T03:46:09.579Z,9.30
2023-03-18T03:48:37.221Z,7.18
2023-03-18T03:51:05.504Z,10.33
2023-03-18T03:53:34.053Z,7.93
2023-03-18T03:56:01.245Z,8.85
2023-03-18T03:58:29.188Z,13.47
2023-03-18T04:00:56.561Z,9.40
2023-03-18T04:03:23.857Z,8.40
2023-03-18T04:05:51.204Z,10.23
2023-03-18T04:08:18.227Z,10.20
2023-03-18T04:10:45.496Z,9.07
2023-03-18T04:13:12.356Z,8.87
2023-03-18T04:15:40.075Z,9.20
2023-03-18T04:18:07.319Z,11.60
2023-03-18T04:20:37.683Z,8.80
2023-03-18T04:23:05.086Z,7.33
2023-03-18T04:25:33.316Z,9.17
2023-03-18T04:28:00.244Z,9.57
2023-03-18T04:30:28.322Z,6.57
2023-03-18T04:32:55.466Z,10.97
2023-03-18T04:35:23.584Z,9.27
2023-03-18T04:37:50.810Z,17.77
2023-03-18T04:40:18.464Z,8.50
2023-03-18T04:42:47.944Z,9.73
2023-03-18T04:45:16.289Z,8.43
2023-03-18T04:47:45.339Z,13.13
2023-03-18T04:50:13.870Z,9.77
2023-03-18T04:52:42.882Z,11.23
2023-03-18T04:55:10.905Z,11.68
2023-03-18T04:57:38.644Z,11.43
2023-03-18T05:00:10.355Z,14.53
2023-03-18T05:02:40.027Z,12.73
2023-03-18T05:05:08.159Z,22.13
2023-03-18T05:07:35.374Z,14.52
2023-03-18T05:10:03.403Z,11.00
2023-03-18T05:12:30.637Z,11.65
2023-03-18T05:14:57.540Z,12.40
2023-03-18T05:17:25.642Z,11.17
2023-03-18T05:19:52.493Z,10.47
2023-03-18T05:22:22.038Z,14.30
2023-03-18T05:27:18.996Z,8.27
2023-03-18T05:29:46.326Z,10.20
2023-03-18T05:32:15.181Z,8.40
2023-03-18T05:34:43.025Z,8.40
2023-03-18T05:37:12.226Z,11.63
2023-03-18T05:39:39.586Z,8.27
2023-03-18T05:42:07.541Z,10.18
2023-03-18T05:44:34.859Z,9.10
2023-03-18T05:47:02.747Z,9.90
2023-03-18T05:49:29.836Z,10.30
2023-03-18T05:51:57.135Z,8.85
2023-03-18T05:54:24.259Z,11.68
2023-03-18T05:56:52.792Z,10.52
2023-03-18T05:59:20.579Z,9.83
2023-03-18T06:01:49.193Z,9.43
2023-03-18T06:04:20.100Z,8.27
2023-03-18T06:06:48.400Z,11.48
2023-03-18T06:09:16.647Z,9.02
2023-03-18T06:11:45.717Z,9.85
2023-03-18T06:14:13.111Z,8.95
2023-03-18T06:16:41.821Z,10.95
2023-03-18T06:19:10.850Z,14.23
2023-03-18T06:21:41.201Z,9.52
2023-03-18T06:24:09.594Z,7.25
2023-03-18T06:26:36.971Z,13.70
2023-03-18T06:29:05.365Z,11.25
2023-03-18T06:31:33.089Z,10.02
2023-03-18T06:34:01.420Z,9.65
2023-03-18T06:36:28.874Z,8.45
2023-03-18T06:38:56.162Z,8.40
2023-03-18T06:41:23.523Z,8.25
2023-03-18T06:43:51.855Z,7.97
2023-03-18T06:46:19.452Z,6.72
2023-03-18T06:48:46.640Z,8.02
2023-03-18T06:51:13.917Z,7.32
2023-03-18T06:53:42.106Z,7.57
2023-03-18T06:56:10.007Z,8.30
2023-03-18T06:58:37.862Z,7.63
2023-03-18T07:01:05.412Z,7.60
2023-03-18T07:03:32.984Z,8.07
2023-03-18T07:06:01.292Z,7.90
2023-03-18T07:08:29.360Z,8.23
2023-03-18T07:10:57.802Z,9.73
2023-03-18T07:13:25.069Z,12.68
2023-03-18T07:15:52.444Z,8.93
2023-03-18T07:18:19.731Z,5.28
2023-03-18T07:20:46.990Z,4.95
2023-03-18T07:23:14.227Z,7.45
2023-03-18T07:25:42.469Z,5.35
2023-03-18T07:28:09.401Z,6.22
2023-03-18T07:30:36.782Z,5.60
2023-03-18T07:33:04.455Z,5.97
2023-03-18T07:35:32.814Z,7.50
2023-03-18T07:37:59.829Z,6.72
2023-03-18T07:40:27.116Z,3.85
2023-03-18T07:42:53.955Z,4.95
2023-03-18T07:45:21.149Z,6.13
2023-03-18T07:47:48.331Z,4.68
2023-03-18T07:50:16.352Z,4.53
2023-03-18T07:52:43.317Z,6.45
2023-03-18T07:55:12.105Z,4.90
2023-03-18T07:57:39.287Z,7.10
2023-03-18T08:00:08.610Z,6.22
2023-03-18T08:02:36.281Z,7.18
2023-03-18T08:05:06.884Z,5.35
2023-03-18T08:07:35.672Z,5.28
2023-03-18T08:10:03.418Z,6.07
2023-03-18T08:12:45.283Z,8.88
2023-03-18T08:15:18.662Z,4.38
2023-03-18T08:17:45.974Z,5.55
2023-03-18T08:20:13.500Z,6.60
2023-03-18T08:22:40.343Z,5.60
2023-03-18T08:25:08.152Z,5.82
2023-03-18T08:27:35.183Z,6.63
2023-03-18T08:30:03.955Z,6.57
2023-03-18T08:32:31.209Z,7.97
2023-03-18T08:34:58.447Z,7.05
2023-03-18T08:37:26.047Z,5.93
2023-03-18T08:39:53.251Z,6.88
2023-03-18T08:42:20.379Z,6.28
2023-03-18T08:44:47.676Z,5.60
2023-03-18T08:47:15.050Z,6.00
2023-03-18T08:49:42.439Z,6.60
2023-03-18T08:52:10.600Z,7.28
2023-03-18T08:54:37.919Z,6.95
2023-03-18T08:57:04.973Z,6.82
2023-03-18T08:59:32.146Z,6.97
2023-03-18T09:01:59.149Z,5.93
2023-03-18T09:04:26.471Z,5.40
2023-03-18T09:06:53.423Z,4.68
2023-03-18T09:09:22.805Z,5.22
2023-03-18T09:11:51.460Z,6.00
2023-03-18T09:14:18.789Z,4.93
2023-03-18T09:16:46.203Z,4.43
2023-03-18T09:19:13.512Z,6.30
2023-03-18T09:21:40.378Z,5.57
2023-03-18T09:24:07.793Z,4.80
2023-03-18T09:26:34.666Z,4.38
2023-03-18T09:29:01.963Z,6.00
2023-03-18T09:31:28.822Z,7.93
2023-03-18T09:33:56.467Z,4.90
2023-03-18T09:36:23.409Z,5.47
2023-03-18T09:38:50.644Z,5.35
2023-03-18T09:41:38.749Z,6.25
2023-03-18T09:44:13.766Z,4.75
2023-03-18T09:46:58.745Z,4.65
2023-03-18T09:49:59.376Z,5.53
2023-03-18T09:52:31.987Z,7.30
2023-03-18T09:55:52.547Z,5.75
2023-03-18T09:58:46.710Z,4.55
2023-03-18T10:01:15.923Z,6.63
2023-03-18T10:03:53.924Z,6.05
2023-03-18T10:06:23.865Z,6.40
2023-03-18T10:09:12.392Z,7.53
2023-03-18T10:11:44.375Z,12.30
2023-03-18T10:14:48.750Z,7.28
2023-03-18T10:17:30.394Z,5.97
2023-03-18T10:20:04.631Z,5.13
2023-03-18T10:22:53.384Z,9.52
2023-03-18T10:25:28.935Z,8.45
2023-03-18T10:28:20.965Z,5.22
2023-03-18T10:31:01.375Z,5.78
2023-03-18T10:33:46.685Z,7.28
2023-03-18T10:36:19.302Z,6.03
2023-03-18T10:38:51.905Z,4.90
2023-03-18T10:41:25.388Z,6.93
2023-03-18T10:43:55.664Z,4.45
2023-03-18T10:46:25.660Z,7.15
2023-03-18T10:48:59.261Z,4.63
2023-03-18T10:51:54.141Z,6.28
2023-03-18T10:54:41.265Z,16.17
2023-03-18T10:57:14.616Z,10.20
2023-03-18T10:59:44.761Z,7.20
2023-03-18T11:02:20.476Z,6.50
2023-03-18T11:04:54.530Z,4.88
2023-03-18T11:07:28.606Z,7.32
2023-03-18T11:10:12.170Z,5.88
2023-03-18T11:12:39.177Z,16.40
2023-03-18T11:15:13.465Z,5.13
2023-03-18T11:17:40.874Z,9.23
2023-03-18T11:20:17.075Z,5.47
2023-03-18T11:22:47.835Z,7.72
2023-03-18T11:25:17.151Z,8.30
2023-03-18T11:27:47.239Z,6.80
2023-03-18T11:30:36.586Z,3.78
2023-03-18T11:33:25.349Z,8.18
2023-03-18T11:35:53.910Z,5.93
2023-03-18T11:38:32.834Z,8.63
2023-03-18T11:43:38.052Z,15.77
2023-03-18T11:46:08.998Z,6.38
2023-03-18T11:48:39.458Z,11.15
2023-03-18T11:51:28.744Z,7.05
2023-03-18T11:54:40.401Z,6.93
2023-03-18T11:57:25.678Z,7.28
2023-03-18T12:00:01.044Z,9.98
2023-03-18T12:02:46.857Z,13.63
2023-03-18T12:05:41.937Z,15.32
2023-03-18T12:08:34.478Z,7.35
2023-03-18T12:11:20.073Z,8.32
2023-03-18T12:14:00.197Z,11.00
2023-03-18T12:16:50.481Z,14.95
2023-03-18T12:19:51.406Z,10.27
2023-03-18T12:22:26.701Z,4.43
2023-03-18T12:25:03.243Z,6.40
2023-03-18T12:27:59.130Z,24.40
2023-03-18T12:30:53.238Z,10.48
2023-03-18T12:33:48.952Z,12.20
2023-03-18T12:36:36.806Z,9.52
2023-03-18T12:39:43.485Z,5.47
2023-03-18T12:42:14.593Z,18.35
2023-03-18T12:44:41.465Z,5.78
2023-03-18T12:47:20.544Z,4.68
2023-03-18T12:50:12.794Z,5.13
2023-03-18T12:52:45.692Z,6.28
2023-03-18T12:55:27.004Z,5.03
2023-03-18T12:58:08.732Z,5.80
2023-03-18T13:00:38.768Z,6.78
2023-03-18T13:03:28.658Z,14.45
2023-03-18T13:05:58.498Z,5.35
2023-03-18T13:08:40.780Z,6.20
2023-03-18T13:11:29.356Z,5.28
2023-03-18T13:14:01.678Z,12.50
2023-03-18T13:16:30.467Z,7.90
2023-03-18T13:21:31.046Z,52.40
2023-03-18T13:24:26.170Z,37.08
2023-03-18T13:27:15.454Z,17.33
2023-03-18T13:29:48.682Z,6.32
2023-03-18T13:32:38.454Z,5.18
2023-03-18T13:35:56.720Z,11.23
2023-03-18T13:38:47.666Z,7.63
2023-03-18T13:41:33.584Z,6.80
2023-03-18T13:44:12.901Z,6.13
2023-03-18T13:46:43.675Z,11.25
2023-03-18T13:49:32.097Z,6.22
2023-03-18T13:52:02.121Z,5.45
2023-03-18T13:54:37.931Z,13.45
2023-03-18T13:57:19.131Z,4.72
2023-03-18T13:59:48.492Z,7.65
2023-03-18T14:02:24.901Z,5.85
2023-03-18T14:04:53.251Z,6.43
2023-03-18T14:07:22.527Z,8.97
2023-03-18T14:10:17.248Z,6.65
2023-03-18T14:12:49.795Z,10.27
2023-03-18T14:15:39.695Z,5.35
2023-03-18T14:18:19.986Z,7.50
2023-03-18T14:20:53.537Z,6.22
2023-03-18T14:24:00.638Z,5.88
2023-03-18T14:26:27.807Z,4.20
2023-03-18T14:29:23.736Z,5.32
2023-03-18T14:31:58.089Z,4.80
2023-03-18T14:34:32.040Z,4.47
2023-03-18T14:36:58.821Z,6.20
2023-03-18T14:39:48.009Z,5.10
2023-03-18T14:42:58.522Z,9.15
2023-03-18T14:45:33.890Z,8.68
2023-03-18T14:48:11.737Z,5.90
2023-03-18T14:50:47.257Z,5.60
2023-03-18T14:53:34.771Z,7.88
2023-03-18T14:56:04.158Z,10.05
2023-03-18T14:58:34.350Z,8.77
2023-03-18T15:01:09.163Z,7.95
2023-03-18T15:03:39.966Z,6.55
2023-03-18T15:06:08.147Z,7.72
2023-03-18T15:08:47.695Z,7.70
2023-03-18T15:11:18.191Z,19.05
2023-03-18T15:13:45.264Z,16.67
2023-03-18T15:16:18.287Z,27.27
2023-03-18T15:18:45.910Z,17.08
2023-03-18T15:21:32.582Z,10.27
2023-03-18T15:24:03.782Z,5.38
2023-03-18T15:26:34.185Z,9.75
2023-03-18T15:29:16.073Z,9.57
2023-03-18T15:31:44.765Z,6.55
2023-03-18T15:34:16.240Z,9.63
2023-03-18T15:36:45.802Z,11.38
2023-03-18T15:42:19.913Z,8.40
2023-03-18T15:44:58.525Z,9.30
2023-03-18T15:47:33.518Z,13.63
2023-03-18T15:50:14.677Z,14.38
2023-03-18T15:52:43.122Z,18.83
2023-03-18T15:55:28.073Z,22.17
2023-03-18T15:57:56.276Z,13.10
2023-03-18T16:00:23.520Z,65.50
2023-03-18T16:02:51.624Z,58.63
2023-03-18T16:05:23.201Z,38.78
2023-03-18T16:07:55.382Z,46.97
2023-03-18T16:10:25.812Z,49.28
2023-03-18T16:12:58.030Z,62.55
2023-03-18T16:15:26.520Z,41.88
2023-03-18T16:17:55.632Z,75.85
2023-03-18T16:20:28.955Z,79.63
2023-03-18T16:22:57.919Z,58.58
2023-03-18T16:25:26.517Z,72.18
2023-03-18T16:27:59.797Z,93.22
2023-03-18T16:30:29.740Z,128.15
2023-03-18T16:32:58.327Z,145.55
2023-03-18T16:35:30.864Z,157.53
2023-03-18T16:37:59.866Z,283.33
2023-03-18T16:40:29.248Z,191.03
2023-03-18T16:42:56.780Z,184.60
2023-03-18T16:45:34.094Z,124.65
2023-03-18T16:48:04.124Z,172.80
2023-03-18T16:50:36.007Z,375.73
2023-03-18T16:53:03.729Z,237.40
2023-03-18T16:55:31.701Z,177.35
2023-03-18T16:58:00.637Z,182.00
2023-03-18T17:00:31.857Z,195.85
2023-03-18T17:03:00.940Z,202.50
2023-03-18T17:05:28.631Z,213.50
2023-03-18T17:07:55.973Z,231.47
2023-03-18T17:10:25.944Z,282.40
2023-03-18T17:12:59.669Z,324.80
2023-03-18T17:15:29.966Z,291.10
2023-03-18T17:18:00.110Z,267.47
2023-03-18T17:20:30.353Z,233.50
2023-03-18T17:22:58.358Z,215.93
2023-03-18T17:25:28.071Z,237.97
2023-03-18T17:28:03.046Z,262.77
2023-03-18T17:30:39.465Z,275.20
2023-03-18T17:33:29.088Z,268.70
2023-03-18T17:35:56.657Z,282.23
2023-03-18T17:38:24.518Z,296.33
2023-03-18T17:40:52.110Z,286.30
2023-03-18T17:43:34.405Z,307.23
2023-03-18T17:46:03.225Z,285.73
2023-03-18T17:48:35.197Z,256.52
2023-03-18T17:51:17.495Z,244.67
2023-03-18T17:53:51.499Z,253.03
2023-03-18T17:56:20.277Z,244.90
2023-03-18T18:01:26.547Z,223.77
2023-03-18T18:03:59.014Z,238.50
2023-03-18T18:06:32.076Z,232.03
2023-03-18T18:09:01.043Z,215.60
2023-03-18T18:11:33.336Z,276.77
2023-03-18T18:14:06.696Z,291.53
2023-03-18T18:16:33.563Z,258.03
2023-03-18T18:19:00.768Z,246.83
2023-03-18T18:21:27.729Z,265.77
2023-03-18T18:23:54.946Z,287.17
2023-03-18T18:26:22.205Z,294.57
2023-03-18T18:28:51.732Z,346.93
2023-03-18T18:33:50.135Z,339.17
2023-03-18T18:36:18.155Z,335.60
2023-03-18T18:38:45.806Z,337.17
2023-03-18T18:41:12.769Z,311.37
2023-03-18T18:43:39.937Z,285.93
2023-03-18T18:46:19.698Z,338.43
2023-03-18T18:48:50.330Z,292.47
2023-03-18T18:51:19.467Z,346.23
2023-03-18T18:53:47.711Z,255.10
2023-03-18T18:56:22.372Z,263.80
2023-03-18T18:58:51.894Z,257.27
2023-03-18T19:01:19.888Z,250.50
2023-03-18T19:03:48.415Z,247.07
2023-03-18T19:06:35.966Z,253.93
2023-03-18T19:09:18.961Z,249.00
2023-03-18T19:11:53.240Z,236.03
2023-03-18T19:14:27.428Z,237.33
2023-03-18T19:16:59.588Z,266.13
2023-03-18T19:19:34.697Z,266.20
2023-03-18T19:22:02.986Z,248.50
2023-03-18T19:24:32.703Z,275.23
2023-03-18T19:27:02.972Z,229.93
2023-03-18T19:29:32.633Z,229.63
2023-03-18T19:32:01.410Z,202.90
2023-03-18T19:36:57.048Z,166.33
2023-03-18T19:39:25.257Z,161.93
2023-03-18T19:41:52.238Z,152.00
2023-03-18T19:44:26.688Z,126.83
2023-03-18T19:46:56.436Z,120.10
2023-03-18T19:49:33.772Z,117.97
2023-03-18T19:52:02.509Z,138.57
2023-03-18T19:54:36.681Z,126.05
2023-03-18T19:57:07.283Z,189.20
2023-03-18T19:59:39.126Z,137.00
2023-03-18T20:02:30.588Z,375.93
2023-03-18T20:04:59.730Z,272.50
2023-03-18T20:07:30.407Z,371.48
2023-03-18T20:09:57.638Z,399.20
2023-03-18T20:12:39.012Z,322.70
2023-03-18T20:15:13.080Z,129.10
2023-03-18T20:17:42.102Z,93.17
2023-03-18T20:20:19.410Z,69.80
2023-03-18T20:22:53.030Z,119.87
2023-03-18T20:25:24.663Z,281.90
2023-03-18T20:27:53.635Z,269.03
2023-03-18T20:30:37.423Z,198.17
2023-03-18T20:33:05.243Z,142.87
2023-03-18T20:35:36.056Z,110.53
2023-03-18T20:38:33.344Z,131.20
2023-03-18T20:41:01.167Z,131.57
2023-03-18T20:43:29.279Z,116.13
2023-03-18T20:45:58.354Z,71.32
2023-03-18T20:48:25.738Z,73.68
2023-03-18T20:50:53.480Z,72.23
2023-03-18T20:53:26.333Z,73.73
2023-03-18T20:55:53.608Z,67.00
2023-03-18T20:58:30.212Z,36.20
2023-03-18T21:00:57.591Z,53.13
2023-03-18T21:03:30.085Z,57.43
2023-03-18T21:05:59.460Z,83.63
2023-03-18T21:08:28.097Z,68.93
2023-03-18T21:10:58.557Z,63.97
2023-03-18T21:13:36.096Z,59.33
2023-03-18T21:16:08.549Z,75.27
2023-03-18T21:18:35.723Z,65.77
2023-03-18T21:21:03.008Z,83.23
2023-03-18T21:23:32.284Z,97.37
2023-03-18T21:25:59.570Z,85.33
2023-03-18T21:28:28.765Z,79.83
2023-03-18T21:30:58.411Z,69.20
2023-03-18T21:33:31.351Z,55.30
2023-03-18T21:35:59.246Z,65.53
2023-03-18T21:38:29.233Z,55.43
2023-03-18T21:40:58.238Z,57.20
2023-03-18T21:43:36.761Z,54.53
2023-03-18T21:46:06.723Z,49.10
2023-03-18T21:48:33.774Z,49.70
2023-03-18T21:51:01.298Z,52.77
2023-03-18T21:53:28.766Z,52.30
2023-03-18T21:55:56.293Z,85.43
2023-03-18T21:58:25.759Z,89.03
2023-03-18T22:00:56.190Z,90.00
2023-03-18T22:03:25.845Z,89.03
2023-03-18T22:05:53.649Z,91.57
2023-03-18T22:08:21.484Z,101.17
2023-03-18T22:10:50.663Z,80.47
2023-03-18T22:13:23.783Z,64.45
2023-03-18T22:15:56.163Z,91.50
2023-03-18T22:18:23.804Z,72.40
2023-03-18T22:20:51.695Z,57.20
2023-03-18T22:23:24.712Z,57.97
2023-03-18T22:25:54.564Z,54.90
2023-03-18T22:28:22.623Z,56.43
2023-03-18T22:30:52.837Z,40.25
2023-03-18T22:33:26.583Z,53.97
2023-03-18T22:35:53.931Z,65.20
2023-03-18T22:38:23.104Z,73.97
2023-03-18T22:40:53.097Z,72.27
2023-03-18T22:43:31.045Z,111.43
2023-03-18T22:45:59.835Z,71.13
2023-03-18T22:48:27.136Z,53.85
2023-03-18T22:50:55.086Z,63.50
2023-03-18T22:53:25.672Z,52.83
2023-03-18T22:55:55.947Z,68.23
2023-03-18T22:58:26.381Z,56.33
2023-03-18T23:00:55.179Z,57.07
2023-03-18T23:03:33.872Z,51.88
2023-03-18T23:08:29.608Z,36.90
2023-03-18T23:11:01.387Z,39.00
2023-03-18T23:13:38.639Z,40.73
2023-03-18T23:16:07.691Z,35.93
2023-03-18T23:18:34.854Z,31.80
2023-03-18T23:21:02.084Z,32.20
2023-03-18T23:23:30.460Z,33.03
2023-03-18T23:25:57.950Z,26.92
2023-03-18T23:28:24.962Z,21.70
2023-03-18T23:30:53.109Z,18.13
2023-03-18T23:33:20.597Z,27.00
2023-03-18T23:35:48.917Z,27.60
2023-03-18T23:38:16.218Z,27.77
2023-03-18T23:40:43.432Z,22.57
2023-03-18T23:43:10.492Z,24.70
2023-03-18T23:45:38.701Z,22.40
2023-03-18T23:48:06.766Z,30.73
2023-03-18T23:50:34.195Z,25.87
2023-03-18T23:53:01.311Z,34.77
2023-03-18T23:55:34.912Z,28.37
2023-03-18T23:58:05.296Z,34.33
